sensor_id;sensor_type;location;lat;lon;timestamp;P1;durP1;ratioP1;P2;durP2;ratioP2
13704;SDS011;6924;52.122;9.952;2023-08-24T00:01:33;1.33;;;1.23;;
13704;SDS011;6924;52.122;9.952;2023-08-24T00:04:00;3.07;;;1.90;;
13704;SDS011;6924;52.122;9.952;2023-08-24T00:06:26;1.80;;;1.40;;
13704;SDS011;6924;52.122;9.952;2023-08-24T00:08:53;1.50;;;1.40;;
13704;SDS011;6924;52.122;9.952;2023-08-24T00:11:19;1.50;;;1.40;;
13704;SDS011;6924;52.122;9.952;2023-08-24T00:13:46;2.83;;;2.00;;
13704;SDS011;6924;52.122;9.952;2023-08-24T00:16:17;1.40;;;1.30;;
13704;SDS011;6924;52.122;9.952;2023-08-24T00:18:44;2.10;;;1.50;;
13704;SDS011;6924;52.122;9.952;2023-08-24T00:21:12;2.07;;;1.40;;
13704;SDS011;6924;52.122;9.952;2023-08-24T00:23:41;3.57;;;1.40;;
13704;SDS011;6924;52.122;9.952;2023-08-24T00:26:08;1.57;;;1.47;;
13704;SDS011;6924;52.122;9.952;2023-08-24T00:28:35;4.27;;;1.50;;
13704;SDS011;6924;52.122;9.952;2023-08-24T00:31:01;2.93;;;1.33;;
13704;SDS011;6924;52.122;9.952;2023-08-24T00:33:29;3.10;;;1.37;;
13704;SDS011;6924;52.122;9.952;2023-08-24T00:35:58;2.07;;;1.40;;
13704;SDS011;6924;52.122;9.952;2023-08-24T00:38:25;1.90;;;1.80;;
13704;SDS011;6924;52.122;9.952;2023-08-24T00:40:52;1.87;;;1.40;;
13704;SDS011;6924;52.122;9.952;2023-08-24T00:43:19;1.47;;;1.30;;
13704;SDS011;6924;52.122;9.952;2023-08-24T00:45:48;1.63;;;1.50;;
13704;SDS011;6924;52.122;9.952;2023-08-24T00:48:16;2.20;;;1.80;;
13704;SDS011;6924;52.122;9.952;2023-08-24T00:50:44;1.50;;;1.40;;
13704;SDS011;6924;52.122;9.952;2023-08-24T00:53:10;1.60;;;1.50;;
13704;SDS011;6924;52.122;9.952;2023-08-24T00:55:37;1.80;;;1.70;;
13704;SDS011;6924;52.122;9.952;2023-08-24T00:58:04;2.47;;;1.83;;
13704;SDS011;6924;52.122;9.952;2023-08-24T01:00:31;1.63;;;1.50;;
13704;SDS011;6924;52.122;9.952;2023-08-24T01:02:58;1.50;;;1.20;;
13704;SDS011;6924;52.122;9.952;2023-08-24T01:05:24;1.60;;;1.50;;
13704;SDS011;6924;52.122;9.952;2023-08-24T01:07:52;1.53;;;1.43;;
13704;SDS011;6924;52.122;9.952;2023-08-24T01:10:19;1.83;;;1.63;;
13704;SDS011;6924;52.122;9.952;2023-08-24T01:12:50;2.17;;;1.63;;
13704;SDS011;6924;52.122;9.952;2023-08-24T01:15:27;1.90;;;1.50;;
13704;SDS011;6924;52.122;9.952;2023-08-24T01:18:00;2.13;;;2.03;;
13704;SDS011;6924;52.122;9.952;2023-08-24T01:20:30;2.70;;;2.50;;
13704;SDS011;6924;52.122;9.952;2023-08-24T01:23:02;1.60;;;1.40;;
13704;SDS011;6924;52.122;9.952;2023-08-24T01:25:37;1.47;;;1.37;;
13704;SDS011;6924;52.122;9.952;2023-08-24T01:28:09;1.90;;;1.53;;
13704;SDS011;6924;52.122;9.952;2023-08-24T01:30:38;1.77;;;1.67;;
13704;SDS011;6924;52.122;9.952;2023-08-24T01:33:05;1.60;;;1.50;;
13704;SDS011;6924;52.122;9.952;2023-08-24T01:35:36;4.57;;;1.87;;
13704;SDS011;6924;52.122;9.952;2023-08-24T01:38:03;1.93;;;1.63;;
13704;SDS011;6924;52.122;9.952;2023-08-24T01:40:33;1.93;;;1.80;;
13704;SDS011;6924;52.122;9.952;2023-08-24T01:43:07;1.73;;;1.63;;
13704;SDS011;6924;52.122;9.952;2023-08-24T01:45:37;5.40;;;1.67;;
13704;SDS011;6924;52.122;9.952;2023-08-24T01:48:07;2.23;;;1.80;;
13704;SDS011;6924;52.122;9.952;2023-08-24T01:50:35;2.17;;;1.87;;
13704;SDS011;6924;52.122;9.952;2023-08-24T01:53:02;6.10;;;1.87;;
13704;SDS011;6924;52.122;9.952;2023-08-24T01:55:29;2.13;;;1.93;;
13704;SDS011;6924;52.122;9.952;2023-08-24T01:57:56;3.67;;;1.60;;
13704;SDS011;6924;52.122;9.952;2023-08-24T02:00:23;1.63;;;1.50;;
13704;SDS011;6924;52.122;9.952;2023-08-24T02:02:50;1.60;;;1.47;;
13704;SDS011;6924;52.122;9.952;2023-08-24T02:05:17;3.03;;;1.60;;
13704;SDS011;6924;52.122;9.952;2023-08-24T02:07:43;2.40;;;1.83;;
13704;SDS011;6924;52.122;9.952;2023-08-24T02:10:10;1.90;;;1.63;;
13704;SDS011;6924;52.122;9.952;2023-08-24T02:12:37;1.70;;;1.50;;
13704;SDS011;6924;52.122;9.952;2023-08-24T02:15:04;1.57;;;1.47;;
13704;SDS011;6924;52.122;9.952;2023-08-24T02:17:31;2.23;;;1.50;;
13704;SDS011;6924;52.122;9.952;2023-08-24T02:20:00;2.30;;;2.10;;
13704;SDS011;6924;52.122;9.952;2023-08-24T02:22:26;2.00;;;1.90;;
13704;SDS011;6924;52.122;9.952;2023-08-24T02:24:54;4.03;;;1.57;;
13704;SDS011;6924;52.122;9.952;2023-08-24T02:27:21;3.27;;;1.60;;
13704;SDS011;6924;52.122;9.952;2023-08-24T02:29:47;2.33;;;2.03;;
13704;SDS011;6924;52.122;9.952;2023-08-24T02:32:14;2.80;;;1.90;;
13704;SDS011;6924;52.122;9.952;2023-08-24T02:34:40;4.40;;;1.57;;
13704;SDS011;6924;52.122;9.952;2023-08-24T02:37:08;1.83;;;1.73;;
13704;SDS011;6924;52.122;9.952;2023-08-24T02:39:35;2.30;;;1.70;;
13704;SDS011;6924;52.122;9.952;2023-08-24T02:42:02;2.57;;;1.87;;
13704;SDS011;6924;52.122;9.952;2023-08-24T02:44:28;1.53;;;1.10;;
13704;SDS011;6924;52.122;9.952;2023-08-24T02:46:56;2.10;;;1.93;;
13704;SDS011;6924;52.122;9.952;2023-08-24T02:49:23;2.47;;;1.90;;
13704;SDS011;6924;52.122;9.952;2023-08-24T02:51:49;2.00;;;1.90;;
13704;SDS011;6924;52.122;9.952;2023-08-24T02:54:17;2.90;;;2.13;;
13704;SDS011;6924;52.122;9.952;2023-08-24T02:56:44;2.40;;;2.20;;
13704;SDS011;6924;52.122;9.952;2023-08-24T02:59:10;2.30;;;2.10;;
13704;SDS011;6924;52.122;9.952;2023-08-24T03:01:37;2.43;;;2.23;;
13704;SDS011;6924;52.122;9.952;2023-08-24T03:04:06;2.57;;;2.37;;
13704;SDS011;6924;52.122;9.952;2023-08-24T03:06:33;2.73;;;2.10;;
13704;SDS011;6924;52.122;9.952;2023-08-24T03:09:00;4.70;;;1.93;;
13704;SDS011;6924;52.122;9.952;2023-08-24T03:11:30;2.97;;;2.70;;
13704;SDS011;6924;52.122;9.952;2023-08-24T03:13:56;2.93;;;2.10;;
13704;SDS011;6924;52.122;9.952;2023-08-24T03:16:23;3.30;;;2.70;;
13704;SDS011;6924;52.122;9.952;2023-08-24T03:18:50;2.73;;;2.53;;
13704;SDS011;6924;52.122;9.952;2023-08-24T03:21:16;2.20;;;2.10;;
13704;SDS011;6924;52.122;9.952;2023-08-24T03:23:42;3.37;;;3.17;;
13704;SDS011;6924;52.122;9.952;2023-08-24T03:26:09;2.63;;;2.53;;
13704;SDS011;6924;52.122;9.952;2023-08-24T03:28:37;4.40;;;2.93;;
13704;SDS011;6924;52.122;9.952;2023-08-24T03:31:03;2.87;;;2.77;;
13704;SDS011;6924;52.122;9.952;2023-08-24T03:33:32;3.17;;;2.80;;
13704;SDS011;6924;52.122;9.952;2023-08-24T03:35:59;4.07;;;2.90;;
13704;SDS011;6924;52.122;9.952;2023-08-24T03:38:26;3.37;;;3.07;;
13704;SDS011;6924;52.122;9.952;2023-08-24T03:40:59;3.20;;;3.00;;
13704;SDS011;6924;52.122;9.952;2023-08-24T03:43:26;3.20;;;3.00;;
13704;SDS011;6924;52.122;9.952;2023-08-24T03:45:53;3.63;;;3.07;;
13704;SDS011;6924;52.122;9.952;2023-08-24T03:48:19;3.33;;;3.07;;
13704;SDS011;6924;52.122;9.952;2023-08-24T03:50:45;3.40;;;3.20;;
13704;SDS011;6924;52.122;9.952;2023-08-24T03:53:12;2.87;;;2.67;;
13704;SDS011;6924;52.122;9.952;2023-08-24T03:55:38;3.53;;;3.23;;
13704;SDS011;6924;52.122;9.952;2023-08-24T03:58:05;2.73;;;2.53;;
13704;SDS011;6924;52.122;9.952;2023-08-24T04:00:31;7.63;;;3.47;;
13704;SDS011;6924;52.122;9.952;2023-08-24T04:02:59;3.57;;;3.03;;
13704;SDS011;6924;52.122;9.952;2023-08-24T04:05:26;3.73;;;3.53;;
13704;SDS011;6924;52.122;9.952;2023-08-24T04:07:52;3.93;;;3.67;;
13704;SDS011;6924;52.122;9.952;2023-08-24T04:10:19;3.43;;;3.23;;
13704;SDS011;6924;52.122;9.952;2023-08-24T04:12:46;3.60;;;3.40;;
13704;SDS011;6924;52.122;9.952;2023-08-24T04:15:12;3.23;;;2.93;;
13704;SDS011;6924;52.122;9.952;2023-08-24T04:17:39;5.73;;;3.77;;
13704;SDS011;6924;52.122;9.952;2023-08-24T04:20:08;3.67;;;3.37;;
13704;SDS011;6924;52.122;9.952;2023-08-24T04:22:35;4.27;;;3.43;;
13704;SDS011;6924;52.122;9.952;2023-08-24T04:25:02;3.70;;;3.50;;
13704;SDS011;6924;52.122;9.952;2023-08-24T04:27:29;3.80;;;3.50;;
13704;SDS011;6924;52.122;9.952;2023-08-24T04:29:56;4.10;;;3.90;;
13704;SDS011;6924;52.122;9.952;2023-08-24T04:32:22;3.57;;;3.27;;
13704;SDS011;6924;52.122;9.952;2023-08-24T04:34:49;5.17;;;3.67;;
13704;SDS011;6924;52.122;9.952;2023-08-24T04:37:17;4.10;;;3.90;;
13704;SDS011;6924;52.122;9.952;2023-08-24T04:39:43;3.33;;;3.10;;
13704;SDS011;6924;52.122;9.952;2023-08-24T04:42:10;4.50;;;4.10;;
13704;SDS011;6924;52.122;9.952;2023-08-24T04:44:36;4.33;;;4.03;;
13704;SDS011;6924;52.122;9.952;2023-08-24T04:47:03;3.80;;;3.60;;
13704;SDS011;6924;52.122;9.952;2023-08-24T04:49:29;3.50;;;3.30;;
13704;SDS011;6924;52.122;9.952;2023-08-24T04:51:56;4.20;;;4.00;;
13704;SDS011;6924;52.122;9.952;2023-08-24T04:54:24;4.43;;;4.00;;
13704;SDS011;6924;52.122;9.952;2023-08-24T04:56:50;4.13;;;3.83;;
13704;SDS011;6924;52.122;9.952;2023-08-24T04:59:17;3.87;;;3.50;;
13704;SDS011;6924;52.122;9.952;2023-08-24T05:01:43;3.80;;;3.53;;
13704;SDS011;6924;52.122;9.952;2023-08-24T05:04:10;4.30;;;3.90;;
13704;SDS011;6924;52.122;9.952;2023-08-24T05:06:36;3.77;;;3.47;;
13704;SDS011;6924;52.122;9.952;2023-08-24T05:09:03;4.60;;;4.30;;
13704;SDS011;6924;52.122;9.952;2023-08-24T05:11:30;4.23;;;3.93;;
13704;SDS011;6924;52.122;9.952;2023-08-24T05:13:57;6.43;;;3.97;;
13704;SDS011;6924;52.122;9.952;2023-08-24T05:16:24;4.60;;;4.40;;
13704;SDS011;6924;52.122;9.952;2023-08-24T05:18:50;4.77;;;4.40;;
13704;SDS011;6924;52.122;9.952;2023-08-24T05:21:17;4.17;;;3.77;;
13704;SDS011;6924;52.122;9.952;2023-08-24T05:23:43;3.83;;;3.53;;
13704;SDS011;6924;52.122;9.952;2023-08-24T05:26:10;3.90;;;3.70;;
13704;SDS011;6924;52.122;9.952;2023-08-24T05:28:38;4.10;;;3.70;;
13704;SDS011;6924;52.122;9.952;2023-08-24T05:31:04;3.73;;;3.50;;
13704;SDS011;6924;52.122;9.952;2023-08-24T05:33:31;3.83;;;3.63;;
13704;SDS011;6924;52.122;9.952;2023-08-24T05:35:58;3.93;;;3.63;;
13704;SDS011;6924;52.122;9.952;2023-08-24T05:38:24;3.50;;;3.30;;
13704;SDS011;6924;52.122;9.952;2023-08-24T05:40:51;4.70;;;3.63;;
13704;SDS011;6924;52.122;9.952;2023-08-24T05:43:18;3.97;;;3.73;;
13704;SDS011;6924;52.122;9.952;2023-08-24T05:45:46;3.90;;;3.60;;
13704;SDS011;6924;52.122;9.952;2023-08-24T05:48:14;4.30;;;3.73;;
13704;SDS011;6924;52.122;9.952;2023-08-24T05:50:42;3.90;;;3.60;;
13704;SDS011;6924;52.122;9.952;2023-08-24T05:53:09;5.40;;;5.00;;
13704;SDS011;6924;52.122;9.952;2023-08-24T05:55:36;4.83;;;4.47;;
13704;SDS011;6924;52.122;9.952;2023-08-24T05:58:03;4.90;;;4.60;;
13704;SDS011;6924;52.122;9.952;2023-08-24T06:00:29;5.00;;;4.50;;
13704;SDS011;6924;52.122;9.952;2023-08-24T06:02:57;4.47;;;4.10;;
13704;SDS011;6924;52.122;9.952;2023-08-24T06:05:24;4.90;;;4.50;;
13704;SDS011;6924;52.122;9.952;2023-08-24T06:07:51;4.67;;;4.37;;
13704;SDS011;6924;52.122;9.952;2023-08-24T06:10:18;4.50;;;4.10;;
13704;SDS011;6924;52.122;9.952;2023-08-24T06:12:44;4.03;;;3.70;;
13704;SDS011;6924;52.122;9.952;2023-08-24T06:15:11;4.60;;;4.30;;
13704;SDS011;6924;52.122;9.952;2023-08-24T06:17:38;3.97;;;3.77;;
13704;SDS011;6924;52.122;9.952;2023-08-24T06:20:07;3.77;;;3.47;;
13704;SDS011;6924;52.122;9.952;2023-08-24T06:22:35;4.70;;;3.80;;
13704;SDS011;6924;52.122;9.952;2023-08-24T06:25:02;4.53;;;4.13;;
13704;SDS011;6924;52.122;9.952;2023-08-24T06:27:30;4.27;;;3.90;;
13704;SDS011;6924;52.122;9.952;2023-08-24T06:29:56;4.30;;;4.07;;
13704;SDS011;6924;52.122;9.952;2023-08-24T06:32:23;4.70;;;4.30;;
13704;SDS011;6924;52.122;9.952;2023-08-24T06:34:49;6.53;;;4.90;;
13704;SDS011;6924;52.122;9.952;2023-08-24T06:37:17;4.93;;;4.63;;
13704;SDS011;6924;52.122;9.952;2023-08-24T06:39:44;5.03;;;4.73;;
13704;SDS011;6924;52.122;9.952;2023-08-24T06:42:10;4.83;;;4.50;;
13704;SDS011;6924;52.122;9.952;2023-08-24T06:44:37;4.80;;;4.50;;
13704;SDS011;6924;52.122;9.952;2023-08-24T06:47:03;5.17;;;4.77;;
13704;SDS011;6924;52.122;9.952;2023-08-24T06:49:30;5.53;;;5.03;;
13704;SDS011;6924;52.122;9.952;2023-08-24T06:51:56;5.50;;;5.10;;
13704;SDS011;6924;52.122;9.952;2023-08-24T06:54:24;5.23;;;4.83;;
13704;SDS011;6924;52.122;9.952;2023-08-24T06:56:51;5.60;;;5.13;;
13704;SDS011;6924;52.122;9.952;2023-08-24T06:59:17;5.93;;;5.50;;
13704;SDS011;6924;52.122;9.952;2023-08-24T07:01:44;5.07;;;4.60;;
13704;SDS011;6924;52.122;9.952;2023-08-24T07:04:12;5.60;;;4.97;;
13704;SDS011;6924;52.122;9.952;2023-08-24T07:06:38;6.17;;;5.60;;
13704;SDS011;6924;52.122;9.952;2023-08-24T07:09:05;5.77;;;5.20;;
13704;SDS011;6924;52.122;9.952;2023-08-24T07:11:34;5.53;;;5.13;;
13704;SDS011;6924;52.122;9.952;2023-08-24T07:14:00;6.17;;;5.50;;
13704;SDS011;6924;52.122;9.952;2023-08-24T07:16:27;5.07;;;4.77;;
13704;SDS011;6924;52.122;9.952;2023-08-24T07:18:54;4.90;;;4.60;;
13704;SDS011;6924;52.122;9.952;2023-08-24T07:21:20;4.93;;;4.60;;
13704;SDS011;6924;52.122;9.952;2023-08-24T07:23:47;5.43;;;5.03;;
13704;SDS011;6924;52.122;9.952;2023-08-24T07:26:13;6.70;;;6.03;;
13704;SDS011;6924;52.122;9.952;2023-08-24T07:28:41;5.20;;;4.80;;
13704;SDS011;6924;52.122;9.952;2023-08-24T07:31:07;4.93;;;4.53;;
13704;SDS011;6924;52.122;9.952;2023-08-24T07:33:35;5.83;;;4.93;;
13704;SDS011;6924;52.122;9.952;2023-08-24T07:36:02;5.37;;;5.00;;
13704;SDS011;6924;52.122;9.952;2023-08-24T07:38:29;5.93;;;5.63;;
13704;SDS011;6924;52.122;9.952;2023-08-24T07:40:56;6.37;;;5.93;;
13704;SDS011;6924;52.122;9.952;2023-08-24T07:43:22;5.23;;;4.83;;
13704;SDS011;6924;52.122;9.952;2023-08-24T07:45:50;6.57;;;5.70;;
13704;SDS011;6924;52.122;9.952;2023-08-24T07:48:17;8.37;;;5.13;;
13704;SDS011;6924;52.122;9.952;2023-08-24T07:50:43;6.20;;;5.60;;
13704;SDS011;6924;52.122;9.952;2023-08-24T07:53:10;4.80;;;4.50;;
13704;SDS011;6924;52.122;9.952;2023-08-24T07:55:36;5.27;;;4.77;;
13704;SDS011;6924;52.122;9.952;2023-08-24T07:58:03;4.73;;;4.33;;
13704;SDS011;6924;52.122;9.952;2023-08-24T08:00:29;4.83;;;3.83;;
13704;SDS011;6924;52.122;9.952;2023-08-24T08:02:58;4.87;;;4.43;;
13704;SDS011;6924;52.122;9.952;2023-08-24T08:05:24;4.63;;;4.23;;
13704;SDS011;6924;52.122;9.952;2023-08-24T08:07:51;7.23;;;4.47;;
13704;SDS011;6924;52.122;9.952;2023-08-24T08:10:18;5.57;;;4.37;;
13704;SDS011;6924;52.122;9.952;2023-08-24T08:12:46;3.90;;;3.47;;
13704;SDS011;6924;52.122;9.952;2023-08-24T08:15:13;4.73;;;3.50;;
13704;SDS011;6924;52.122;9.952;2023-08-24T08:17:39;3.57;;;3.37;;
13704;SDS011;6924;52.122;9.952;2023-08-24T08:20:08;3.90;;;3.40;;
13704;SDS011;6924;52.122;9.952;2023-08-24T08:22:37;5.20;;;3.40;;
13704;SDS011;6924;52.122;9.952;2023-08-24T08:25:04;3.60;;;3.30;;
13704;SDS011;6924;52.122;9.952;2023-08-24T08:27:31;6.00;;;3.60;;
13704;SDS011;6924;52.122;9.952;2023-08-24T08:29:58;3.33;;;3.03;;
13704;SDS011;6924;52.122;9.952;2023-08-24T08:32:25;3.33;;;3.13;;
13704;SDS011;6924;52.122;9.952;2023-08-24T08:34:52;3.40;;;3.10;;
13704;SDS011;6924;52.122;9.952;2023-08-24T08:37:20;2.47;;;2.27;;
13704;SDS011;6924;52.122;9.952;2023-08-24T08:39:47;3.63;;;3.30;;
13704;SDS011;6924;52.122;9.952;2023-08-24T08:42:13;2.97;;;2.73;;
13704;SDS011;6924;52.122;9.952;2023-08-24T08:44:40;3.03;;;2.83;;
13704;SDS011;6924;52.122;9.952;2023-08-24T08:47:07;3.53;;;3.23;;
13704;SDS011;6924;52.122;9.952;2023-08-24T08:49:36;3.83;;;3.13;;
13704;SDS011;6924;52.122;9.952;2023-08-24T08:52:05;3.30;;;3.10;;
13704;SDS011;6924;52.122;9.952;2023-08-24T08:54:33;3.83;;;3.53;;
13704;SDS011;6924;52.122;9.952;2023-08-24T08:57:00;3.23;;;2.73;;
13704;SDS011;6924;52.122;9.952;2023-08-24T08:59:28;4.10;;;3.80;;
13704;SDS011;6924;52.122;9.952;2023-08-24T09:01:56;2.43;;;2.23;;
13704;SDS011;6924;52.122;9.952;2023-08-24T09:04:25;3.40;;;3.10;;
13704;SDS011;6924;52.122;9.952;2023-08-24T09:06:53;3.30;;;3.03;;
13704;SDS011;6924;52.122;9.952;2023-08-24T09:09:21;3.77;;;3.00;;
13704;SDS011;6924;52.122;9.952;2023-08-24T09:11:50;3.63;;;3.33;;
13704;SDS011;6924;52.122;9.952;2023-08-24T09:14:16;3.27;;;2.97;;
13704;SDS011;6924;52.122;9.952;2023-08-24T09:16:43;3.13;;;2.43;;
13704;SDS011;6924;52.122;9.952;2023-08-24T09:19:10;3.27;;;2.77;;
13704;SDS011;6924;52.122;9.952;2023-08-24T09:21:38;3.00;;;2.80;;
13704;SDS011;6924;52.122;9.952;2023-08-24T09:24:07;3.10;;;2.80;;
13704;SDS011;6924;52.122;9.952;2023-08-24T09:26:34;2.93;;;2.70;;
13704;SDS011;6924;52.122;9.952;2023-08-24T09:29:11;3.70;;;2.47;;
13704;SDS011;6924;52.122;9.952;2023-08-24T09:31:39;3.20;;;3.00;;
13704;SDS011;6924;52.122;9.952;2023-08-24T09:34:06;2.80;;;2.60;;
13704;SDS011;6924;52.122;9.952;2023-08-24T09:36:33;2.40;;;2.20;;
13704;SDS011;6924;52.122;9.952;2023-08-24T09:39:00;5.80;;;2.50;;
13704;SDS011;6924;52.122;9.952;2023-08-24T09:41:38;2.30;;;2.10;;
13704;SDS011;6924;52.122;9.952;2023-08-24T09:44:06;3.00;;;2.80;;
13704;SDS011;6924;52.122;9.952;2023-08-24T09:46:34;2.77;;;2.57;;
13704;SDS011;6924;52.122;9.952;2023-08-24T09:49:01;2.90;;;2.70;;
13704;SDS011;6924;52.122;9.952;2023-08-24T09:51:30;3.37;;;2.17;;
13704;SDS011;6924;52.122;9.952;2023-08-24T09:53:59;2.40;;;2.20;;
13704;SDS011;6924;52.122;9.952;2023-08-24T09:56:31;2.47;;;2.27;;
13704;SDS011;6924;52.122;9.952;2023-08-24T09:59:02;2.87;;;2.60;;
13704;SDS011;6924;52.122;9.952;2023-08-24T10:01:36;3.00;;;2.40;;
13704;SDS011;6924;52.122;9.952;2023-08-24T10:04:03;2.73;;;2.43;;
13704;SDS011;6924;52.122;9.952;2023-08-24T10:06:31;2.90;;;2.20;;
13704;SDS011;6924;52.122;9.952;2023-08-24T10:09:02;3.43;;;2.60;;
13704;SDS011;6924;52.122;9.952;2023-08-24T10:11:34;2.63;;;2.43;;
13704;SDS011;6924;52.122;9.952;2023-08-24T10:14:04;2.73;;;2.37;;
13704;SDS011;6924;52.122;9.952;2023-08-24T10:16:36;3.27;;;2.07;;
13704;SDS011;6924;52.122;9.952;2023-08-24T10:19:03;2.37;;;2.17;;
13704;SDS011;6924;52.122;9.952;2023-08-24T10:21:30;2.27;;;2.10;;
13704;SDS011;6924;52.122;9.952;2023-08-24T10:23:57;3.07;;;2.00;;
13704;SDS011;6924;52.122;9.952;2023-08-24T10:26:25;3.00;;;2.80;;
13704;SDS011;6924;52.122;9.952;2023-08-24T10:28:52;4.90;;;1.93;;
13704;SDS011;6924;52.122;9.952;2023-08-24T10:31:19;3.53;;;2.07;;
13704;SDS011;6924;52.122;9.952;2023-08-24T10:33:48;4.23;;;1.90;;
13704;SDS011;6924;52.122;9.952;2023-08-24T10:36:16;2.20;;;2.00;;
13704;SDS011;6924;52.122;9.952;2023-08-24T10:38:43;2.17;;;2.07;;
13704;SDS011;6924;52.122;9.952;2023-08-24T10:41:10;2.23;;;2.07;;
13704;SDS011;6924;52.122;9.952;2023-08-24T10:43:39;1.80;;;1.70;;
13704;SDS011;6924;52.122;9.952;2023-08-24T10:46:11;2.10;;;1.90;;
13704;SDS011;6924;52.122;9.952;2023-08-24T10:51:29;2.40;;;2.30;;
13704;SDS011;6924;52.122;9.952;2023-08-24T10:53:57;2.23;;;2.03;;
13704;SDS011;6924;52.122;9.952;2023-08-24T10:56:29;2.57;;;2.33;;
13704;SDS011;6924;52.122;9.952;2023-08-24T10:59:10;2.50;;;2.30;;
13704;SDS011;6924;52.122;9.952;2023-08-24T11:01:39;4.70;;;2.10;;
13704;SDS011;6924;52.122;9.952;2023-08-24T11:04:07;2.33;;;2.13;;
13704;SDS011;6924;52.122;9.952;2023-08-24T11:06:50;2.03;;;1.83;;
13704;SDS011;6924;52.122;9.952;2023-08-24T11:09:17;2.90;;;1.80;;
13704;SDS011;6924;52.122;9.952;2023-08-24T11:11:54;2.00;;;1.80;;
13704;SDS011;6924;52.122;9.952;2023-08-24T11:14:22;2.93;;;2.03;;
13704;SDS011;6924;52.122;9.952;2023-08-24T11:16:52;8.80;;;3.10;;
13704;SDS011;6924;52.122;9.952;2023-08-24T11:19:20;2.37;;;2.20;;
13704;SDS011;6924;52.122;9.952;2023-08-24T11:21:47;1.97;;;1.87;;
13704;SDS011;6924;52.122;9.952;2023-08-24T11:24:13;4.13;;;1.77;;
13704;SDS011;6924;52.122;9.952;2023-08-24T11:26:41;3.53;;;1.67;;
13704;SDS011;6924;52.122;9.952;2023-08-24T11:29:08;2.17;;;1.97;;
13704;SDS011;6924;52.122;9.952;2023-08-24T11:31:34;2.43;;;2.23;;
13704;SDS011;6924;52.122;9.952;2023-08-24T11:34:01;3.07;;;1.97;;
13704;SDS011;6924;52.122;9.952;2023-08-24T11:36:30;3.07;;;1.80;;
13704;SDS011;6924;52.122;9.952;2023-08-24T11:38:57;2.93;;;1.60;;
13704;SDS011;6924;52.122;9.952;2023-08-24T11:41:25;2.13;;;2.00;;
13704;SDS011;6924;52.122;9.952;2023-08-24T11:43:58;3.87;;;1.77;;
13704;SDS011;6924;52.122;9.952;2023-08-24T11:46:28;2.40;;;1.80;;
13704;SDS011;6924;52.122;9.952;2023-08-24T11:48:56;2.17;;;1.97;;
13704;SDS011;6924;52.122;9.952;2023-08-24T11:51:23;2.10;;;1.90;;
13704;SDS011;6924;52.122;9.952;2023-08-24T11:53:51;1.90;;;1.80;;
13704;SDS011;6924;52.122;9.952;2023-08-24T11:56:18;2.07;;;1.97;;
13704;SDS011;6924;52.122;9.952;2023-08-24T11:58:48;2.37;;;1.80;;
13704;SDS011;6924;52.122;9.952;2023-08-24T12:01:16;2.40;;;1.60;;
13704;SDS011;6924;52.122;9.952;2023-08-24T12:03:43;5.23;;;1.80;;
13704;SDS011;6924;52.122;9.952;2023-08-24T12:06:10;1.70;;;1.60;;
13704;SDS011;6924;52.122;9.952;2023-08-24T12:08:37;4.60;;;1.97;;
13704;SDS011;6924;52.122;9.952;2023-08-24T12:11:10;2.10;;;1.93;;
13704;SDS011;6924;52.122;9.952;2023-08-24T12:13:42;4.83;;;1.87;;
13704;SDS011;6924;52.122;9.952;2023-08-24T12:16:09;2.87;;;2.20;;
13704;SDS011;6924;52.122;9.952;2023-08-24T12:18:37;3.70;;;1.93;;
13704;SDS011;6924;52.122;9.952;2023-08-24T12:21:13;1.83;;;1.50;;
13704;SDS011;6924;52.122;9.952;2023-08-24T12:23:39;3.90;;;1.97;;
13704;SDS011;6924;52.122;9.952;2023-08-24T12:26:06;2.23;;;1.90;;
13704;SDS011;6924;52.122;9.952;2023-08-24T12:28:34;6.13;;;1.80;;
13704;SDS011;6924;52.122;9.952;2023-08-24T12:31:01;2.10;;;1.90;;
13704;SDS011;6924;52.122;9.952;2023-08-24T12:33:30;2.53;;;1.63;;
13704;SDS011;6924;52.122;9.952;2023-08-24T12:35:57;2.33;;;1.83;;
13704;SDS011;6924;52.122;9.952;2023-08-24T12:38:24;2.63;;;1.57;;
13704;SDS011;6924;52.122;9.952;2023-08-24T12:40:52;2.17;;;2.00;;
13704;SDS011;6924;52.122;9.952;2023-08-24T12:43:19;3.13;;;1.70;;
13704;SDS011;6924;52.122;9.952;2023-08-24T12:45:47;1.83;;;1.60;;
13704;SDS011;6924;52.122;9.952;2023-08-24T12:48:14;1.93;;;1.83;;
13704;SDS011;6924;52.122;9.952;2023-08-24T12:50:40;1.83;;;1.73;;
13704;SDS011;6924;52.122;9.952;2023-08-24T12:53:07;5.57;;;1.63;;
13704;SDS011;6924;52.122;9.952;2023-08-24T12:55:33;2.00;;;1.80;;
13704;SDS011;6924;52.122;9.952;2023-08-24T12:58:01;2.43;;;2.13;;
13704;SDS011;6924;52.122;9.952;2023-08-24T13:00:28;1.70;;;1.60;;
13704;SDS011;6924;52.122;9.952;2023-08-24T13:02:56;3.00;;;1.77;;
13704;SDS011;6924;52.122;9.952;2023-08-24T13:05:23;3.00;;;1.70;;
13704;SDS011;6924;52.122;9.952;2023-08-24T13:07:50;2.13;;;1.43;;
13704;SDS011;6924;52.122;9.952;2023-08-24T13:10:27;1.63;;;1.53;;
13704;SDS011;6924;52.122;9.952;2023-08-24T13:12:56;2.60;;;1.37;;
13704;SDS011;6924;52.122;9.952;2023-08-24T13:15:24;2.40;;;1.67;;
13704;SDS011;6924;52.122;9.952;2023-08-24T13:17:51;2.53;;;1.50;;
13704;SDS011;6924;52.122;9.952;2023-08-24T13:20:19;3.13;;;1.73;;
13704;SDS011;6924;52.122;9.952;2023-08-24T13:22:45;1.60;;;1.50;;
13704;SDS011;6924;52.122;9.952;2023-08-24T13:25:12;1.90;;;1.77;;
13704;SDS011;6924;52.122;9.952;2023-08-24T13:27:38;2.37;;;1.70;;
13704;SDS011;6924;52.122;9.952;2023-08-24T13:30:05;1.80;;;1.60;;
13704;SDS011;6924;52.122;9.952;2023-08-24T13:32:32;1.53;;;1.17;;
13704;SDS011;6924;52.122;9.952;2023-08-24T13:35:00;1.40;;;1.30;;
13704;SDS011;6924;52.122;9.952;2023-08-24T13:37:27;1.90;;;1.27;;
13704;SDS011;6924;52.122;9.952;2023-08-24T13:39:54;2.77;;;1.57;;
13704;SDS011;6924;52.122;9.952;2023-08-24T13:42:20;1.47;;;1.00;;
13704;SDS011;6924;52.122;9.952;2023-08-24T13:44:47;1.10;;;1.10;;
13704;SDS011;6924;52.122;9.952;2023-08-24T13:47:13;3.70;;;1.83;;
13704;SDS011;6924;52.122;9.952;2023-08-24T13:49:40;1.30;;;1.20;;
13704;SDS011;6924;52.122;9.952;2023-08-24T13:52:06;2.07;;;1.57;;
13704;SDS011;6924;52.122;9.952;2023-08-24T13:54:34;1.40;;;1.30;;
13704;SDS011;6924;52.122;9.952;2023-08-24T13:57:01;1.30;;;1.17;;
13704;SDS011;6924;52.122;9.952;2023-08-24T13:59:27;1.33;;;1.03;;
13704;SDS011;6924;52.122;9.952;2023-08-24T14:01:54;1.90;;;1.20;;
13704;SDS011;6924;52.122;9.952;2023-08-24T14:04:21;3.47;;;1.07;;
13704;SDS011;6924;52.122;9.952;2023-08-24T14:06:47;1.20;;;1.10;;
13704;SDS011;6924;52.122;9.952;2023-08-24T14:09:14;3.30;;;1.37;;
13704;SDS011;6924;52.122;9.952;2023-08-24T14:11:42;1.10;;;1.10;;
13704;SDS011;6924;52.122;9.952;2023-08-24T14:14:08;1.50;;;1.30;;
13704;SDS011;6924;52.122;9.952;2023-08-24T14:16:35;1.80;;;1.10;;
13704;SDS011;6924;52.122;9.952;2023-08-24T14:19:02;1.93;;;1.53;;
13704;SDS011;6924;52.122;9.952;2023-08-24T14:21:28;1.23;;;1.10;;
13704;SDS011;6924;52.122;9.952;2023-08-24T14:23:55;2.50;;;1.27;;
13704;SDS011;6924;52.122;9.952;2023-08-24T14:26:21;3.57;;;1.60;;
13704;SDS011;6924;52.122;9.952;2023-08-24T14:28:49;1.93;;;1.40;;
13704;SDS011;6924;52.122;9.952;2023-08-24T14:31:19;2.37;;;1.80;;
13704;SDS011;6924;52.122;9.952;2023-08-24T14:33:47;1.57;;;1.30;;
13704;SDS011;6924;52.122;9.952;2023-08-24T14:36:13;1.57;;;1.23;;
13704;SDS011;6924;52.122;9.952;2023-08-24T14:38:40;1.70;;;1.50;;
13704;SDS011;6924;52.122;9.952;2023-08-24T14:41:06;2.83;;;1.30;;
13704;SDS011;6924;52.122;9.952;2023-08-24T14:43:33;1.53;;;1.40;;
13704;SDS011;6924;52.122;9.952;2023-08-24T14:46:01;1.80;;;1.60;;
13704;SDS011;6924;52.122;9.952;2023-08-24T14:48:28;1.47;;;1.20;;
13704;SDS011;6924;52.122;9.952;2023-08-24T14:50:55;1.90;;;1.77;;
13704;SDS011;6924;52.122;9.952;2023-08-24T14:53:22;1.60;;;1.50;;
13704;SDS011;6924;52.122;9.952;2023-08-24T14:55:49;3.60;;;1.87;;
13704;SDS011;6924;52.122;9.952;2023-08-24T14:58:15;3.53;;;1.73;;
13704;SDS011;6924;52.122;9.952;2023-08-24T15:00:42;4.73;;;1.40;;
13704;SDS011;6924;52.122;9.952;2023-08-24T15:03:12;1.50;;;1.40;;
13704;SDS011;6924;52.122;9.952;2023-08-24T15:05:41;1.53;;;1.43;;